createdAt,value
2022-07-26T00:00:45.154Z,54.56
2022-07-26T00:01:40.391Z,54.69
2022-07-26T00:02:35.658Z,54.81
2022-07-26T00:03:30.708Z,54.70
2022-07-26T00:04:25.929Z,54.86
2022-07-26T00:05:20.950Z,55.02
2022-07-26T00:06:15.999Z,54.96
2022-07-26T00:07:11.060Z,54.97
2022-07-26T00:08:06.113Z,55.06
2022-07-26T00:09:01.150Z,54.82
2022-07-26T00:09:56.159Z,55.01
2022-07-26T00:10:51.192Z,54.72
2022-07-26T00:11:46.220Z,54.99
2022-07-26T00:12:41.227Z,54.77
2022-07-26T00:13:36.262Z,54.58
2022-07-26T00:14:31.296Z,55.03
2022-07-26T00:15:27.798Z,54.68
2022-07-26T00:16:23.012Z,54.20
2022-07-26T00:17:18.156Z,54.46
2022-07-26T00:18:13.368Z,54.36
2022-07-26T00:19:08.603Z,54.48
2022-07-26T00:20:03.398Z,54.75
2022-07-26T00:20:58.460Z,54.59
2022-07-26T00:21:53.467Z,54.73
2022-07-26T00:22:48.626Z,54.52
2022-07-26T00:23:43.626Z,54.32
2022-07-26T00:24:38.647Z,54.14
2022-07-26T00:25:33.672Z,53.94
2022-07-26T00:26:28.697Z,53.85
2022-07-26T00:27:23.823Z,54.04
2022-07-26T00:28:18.891Z,54.18
2022-07-26T00:29:13.930Z,54.38
2022-07-26T00:30:08.939Z,54.56
2022-07-26T00:31:04.040Z,54.66
2022-07-26T00:31:59.156Z,54.42
2022-07-26T00:32:54.172Z,54.61
2022-07-26T00:33:49.226Z,55.07
2022-07-26T00:34:44.223Z,55.27
2022-07-26T00:35:39.241Z,55.15
2022-07-26T00:36:34.452Z,54.90
2022-07-26T00:37:29.765Z,55.15
2022-07-26T00:38:24.941Z,55.10
2022-07-26T00:39:20.097Z,55.05
2022-07-26T00:40:15.301Z,54.92
2022-07-26T00:41:11.087Z,55.14
2022-07-26T00:42:06.234Z,55.06
2022-07-26T00:43:01.423Z,55.30
2022-07-26T00:43:57.805Z,55.24
2022-07-26T00:44:53.111Z,55.53
2022-07-26T00:45:48.990Z,55.45
2022-07-26T00:46:44.112Z,55.46
2022-07-26T00:47:39.308Z,55.54
2022-07-26T00:48:35.183Z,54.93
2022-07-26T00:49:30.362Z,54.86
2022-07-26T00:50:26.246Z,54.98
2022-07-26T00:51:21.373Z,55.09
2022-07-26T00:52:16.691Z,54.67
2022-07-26T00:53:12.536Z,54.79
2022-07-26T00:54:07.713Z,55.18
2022-07-26T00:55:02.999Z,54.84
2022-07-26T00:55:59.156Z,55.12
2022-07-26T00:56:55.283Z,54.81
2022-07-26T00:57:50.140Z,54.77
2022-07-26T00:58:45.317Z,54.65
2022-07-26T00:59:40.491Z,54.48
2022-07-26T01:00:36.245Z,54.65
2022-07-26T01:01:31.526Z,54.42
2022-07-26T01:02:27.404Z,54.48
2022-07-26T01:03:22.463Z,54.90
2022-07-26T01:04:17.675Z,54.92
2022-07-26T01:05:13.401Z,54.69
2022-07-26T01:06:08.750Z,54.67
2022-07-26T01:07:15.274Z,54.83
2022-07-26T01:08:01.227Z,55.02
2022-07-26T01:08:55.435Z,54.84
2022-07-26T01:09:51.361Z,54.76
2022-07-26T01:10:46.457Z,54.69
2022-07-26T01:11:41.889Z,55.24
2022-07-26T01:12:37.625Z,54.95
2022-07-26T01:13:35.326Z,54.78
2022-07-26T01:14:28.726Z,55.01
2022-07-26T01:15:23.907Z,55.19
2022-07-26T01:16:19.460Z,55.42
2022-07-26T01:17:15.007Z,55.20
2022-07-26T01:18:10.295Z,55.06
2022-07-26T01:19:05.465Z,54.89
2022-07-26T01:20:01.778Z,55.20
2022-07-26T01:20:56.963Z,55.03
2022-07-26T01:21:52.817Z,55.18
2022-07-26T01:22:47.944Z,55.26
2022-07-26T01:23:43.142Z,55.34
2022-07-26T01:24:38.993Z,55.32
2022-07-26T01:25:43.534Z,55.08
2022-07-26T01:26:30.791Z,55.33
2022-07-26T01:27:25.033Z,55.46
2022-07-26T01:28:20.991Z,55.52
2022-07-26T01:29:16.151Z,55.31
2022-07-26T01:30:11.340Z,55.63
2022-07-26T01:31:07.141Z,55.43
2022-07-26T01:32:02.283Z,55.57
2022-07-26T01:32:58.282Z,55.59
2022-07-26T01:33:53.297Z,55.81
2022-07-26T01:34:48.608Z,55.78
2022-07-26T01:35:44.505Z,55.83
2022-07-26T01:36:39.863Z,55.70
2022-07-26T01:37:34.966Z,56.03
2022-07-26T01:38:31.370Z,56.31
2022-07-26T01:39:26.645Z,56.17
2022-07-26T01:40:22.517Z,56.11
2022-07-26T01:41:17.793Z,56.09
2022-07-26T01:42:14.215Z,56.34
2022-07-26T01:43:08.158Z,56.40
2022-07-26T01:44:03.484Z,56.14
2022-07-26T01:44:58.647Z,56.18
2022-07-26T01:45:54.004Z,56.23
2022-07-26T01:46:49.161Z,56.21
2022-07-26T01:47:44.480Z,56.26
2022-07-26T01:48:40.368Z,56.23
2022-07-26T01:49:35.556Z,56.27
2022-07-26T01:50:30.696Z,56.33
2022-07-26T01:51:26.695Z,56.51
2022-07-26T01:52:21.874Z,56.35
2022-07-26T01:53:17.036Z,56.40
2022-07-26T01:54:12.667Z,56.62
2022-07-26T01:55:07.468Z,56.89
2022-07-26T01:56:02.455Z,56.67
2022-07-26T01:56:57.519Z,56.42
2022-07-26T01:57:52.550Z,56.54
2022-07-26T01:58:47.575Z,56.72
2022-07-26T01:59:42.679Z,56.62
2022-07-26T02:00:37.874Z,56.55
2022-07-26T02:01:39.453Z,56.40
2022-07-26T02:02:29.165Z,56.53
2022-07-26T02:03:23.189Z,56.58
2022-07-26T02:04:18.223Z,56.39
2022-07-26T02:05:13.295Z,56.38
2022-07-26T02:06:08.343Z,56.22
2022-07-26T02:07:03.345Z,56.33
2022-07-26T02:08:01.387Z,56.40
2022-07-26T02:08:56.412Z,56.58
2022-07-26T02:09:51.423Z,56.86
2022-07-26T02:10:46.509Z,56.91
2022-07-26T02:11:41.510Z,57.12
2022-07-26T02:12:36.577Z,57.19
2022-07-26T02:13:31.661Z,57.28
2022-07-26T02:14:28.126Z,57.31
2022-07-26T02:15:21.852Z,57.38
2022-07-26T02:16:17.104Z,57.35
2022-07-26T02:17:11.913Z,57.42
2022-07-26T02:18:06.907Z,57.36
2022-07-26T02:19:02.112Z,57.51
2022-07-26T02:19:57.305Z,57.53
2022-07-26T02:20:52.410Z,57.20
2022-07-26T02:21:47.679Z,57.17
2022-07-26T02:22:42.760Z,57.56
2022-07-26T02:23:41.296Z,57.57
2022-07-26T02:24:33.929Z,57.44
2022-07-26T02:25:28.903Z,57.39
2022-07-26T02:26:24.007Z,57.05
2022-07-26T02:27:18.968Z,56.96
2022-07-26T02:28:14.298Z,57.03
2022-07-26T02:29:09.188Z,57.07
2022-07-26T02:30:04.220Z,57.29
2022-07-26T02:30:59.369Z,57.29
2022-07-26T02:31:54.478Z,57.51
2022-07-26T02:32:49.556Z,57.56
2022-07-26T02:33:44.616Z,57.31
2022-07-26T02:34:39.740Z,57.56
2022-07-26T02:35:34.818Z,57.51
2022-07-26T02:36:29.937Z,57.35
2022-07-26T02:37:25.017Z,57.36
2022-07-26T02:38:19.996Z,57.49
2022-07-26T02:39:15.183Z,57.52
2022-07-26T02:40:12.309Z,57.70
2022-07-26T02:41:06.797Z,58.04
2022-07-26T02:42:00.833Z,58.14
2022-07-26T02:42:56.028Z,58.01
2022-07-26T02:43:51.140Z,58.19
2022-07-26T02:44:46.354Z,58.16
2022-07-26T02:45:41.546Z,58.13
2022-07-26T02:46:36.721Z,58.34
2022-07-26T02:47:31.647Z,58.51
2022-07-26T02:48:26.795Z,58.32
2022-07-26T02:49:21.796Z,58.39
2022-07-26T02:50:16.855Z,58.38
2022-07-26T02:51:16.615Z,58.48
2022-07-26T02:52:11.662Z,58.56
2022-07-26T02:53:06.793Z,58.51
2022-07-26T02:54:02.644Z,58.54
2022-07-26T02:54:57.958Z,58.53
2022-07-26T02:55:53.247Z,59.03
2022-07-26T02:56:49.385Z,58.93
2022-07-26T02:57:46.417Z,58.97
2022-07-26T02:58:40.428Z,58.90
2022-07-26T02:59:35.491Z,58.77
2022-07-26T03:00:30.866Z,58.68
2022-07-26T03:01:26.610Z,58.56
2022-07-26T03:02:21.881Z,58.51
2022-07-26T03:03:17.588Z,58.46
2022-07-26T03:04:12.725Z,58.65
2022-07-26T03:05:08.161Z,58.55
2022-07-26T03:06:03.896Z,58.46
2022-07-26T03:06:59.183Z,58.42
2022-07-26T03:07:54.363Z,58.70
2022-07-26T03:08:50.643Z,58.66
2022-07-26T03:09:45.963Z,58.55
2022-07-26T03:10:41.674Z,58.52
2022-07-26T03:11:36.813Z,58.74
2022-07-26T03:12:32.065Z,59.04
2022-07-26T03:13:27.790Z,59.08
2022-07-26T03:14:22.976Z,59.09
2022-07-26T03:15:18.821Z,59.04
2022-07-26T03:16:14.056Z,59.17
2022-07-26T03:17:09.297Z,59.27
2022-07-26T03:18:05.166Z,59.28
2022-07-26T03:19:00.322Z,59.23
2022-07-26T03:19:55.611Z,59.15
2022-07-26T03:20:52.028Z,59.19
2022-07-26T03:21:47.204Z,59.42
2022-07-26T03:22:43.099Z,59.51
2022-07-26T03:23:38.126Z,59.50
2022-07-26T03:24:33.318Z,59.70
2022-07-26T03:25:29.061Z,59.71
2022-07-26T03:26:24.366Z,59.66
2022-07-26T03:27:20.237Z,59.90
2022-07-26T03:28:19.328Z,59.88
2022-07-26T03:29:10.786Z,59.93
2022-07-26T03:30:06.607Z,59.88
2022-07-26T03:31:01.882Z,59.86
2022-07-26T03:31:57.100Z,59.92
2022-07-26T03:32:53.458Z,59.95
2022-07-26T03:33:48.768Z,60.13
2022-07-26T03:34:44.494Z,60.10
2022-07-26T03:35:39.620Z,60.13
2022-07-26T03:36:34.984Z,60.17
2022-07-26T03:37:45.963Z,60.16
2022-07-26T03:38:27.111Z,60.17
2022-07-26T03:39:21.886Z,60.11
2022-07-26T03:40:17.059Z,60.17
2022-07-26T03:41:13.659Z,60.35
2022-07-26T03:42:07.987Z,60.38
2022-07-26T03:43:03.158Z,60.42
2022-07-26T03:43:58.340Z,60.48
2022-07-26T03:44:54.830Z,60.51
2022-07-26T03:45:50.215Z,60.64
2022-07-26T03:46:46.085Z,60.84
2022-07-26T03:47:41.135Z,60.97
2022-07-26T03:48:36.595Z,61.30
2022-07-26T03:49:32.174Z,61.65
2022-07-26T03:50:27.356Z,61.69
2022-07-26T03:51:22.619Z,61.81
2022-07-26T03:52:17.759Z,62.08
2022-07-26T03:53:14.010Z,62.23
2022-07-26T03:54:09.754Z,62.42
2022-07-26T03:55:04.478Z,62.53
2022-07-26T03:55:59.539Z,62.62
2022-07-26T03:56:54.585Z,62.72
2022-07-26T03:57:49.672Z,62.95
2022-07-26T03:58:44.728Z,62.98
2022-07-26T03:59:39.772Z,63.16
2022-07-26T04:00:34.799Z,63.31
2022-07-26T04:01:29.965Z,63.41
2022-07-26T04:02:30.267Z,63.57
2022-07-26T04:03:25.457Z,63.76
2022-07-26T04:04:25.346Z,63.82
2022-07-26T04:05:17.634Z,63.94
2022-07-26T04:06:12.949Z,64.07
2022-07-26T04:07:07.283Z,64.18
2022-07-26T04:08:02.317Z,64.44
2022-07-26T04:08:58.207Z,64.38
2022-07-26T04:09:52.471Z,64.31
2022-07-26T04:10:47.547Z,64.28
2022-07-26T04:11:42.608Z,64.21
2022-07-26T04:12:37.713Z,64.30
2022-07-26T04:13:34.537Z,64.26
2022-07-26T04:14:29.584Z,64.21
2022-07-26T04:15:24.723Z,64.01
2022-07-26T04:16:19.853Z,64.14
2022-07-26T04:17:14.881Z,64.13
2022-07-26T04:18:09.925Z,63.96
2022-07-26T04:19:06.315Z,63.77
2022-07-26T04:20:01.575Z,63.78
2022-07-26T04:20:56.844Z,63.80
2022-07-26T04:21:55.888Z,63.76
2022-07-26T04:22:51.052Z,63.65
2022-07-26T04:23:50.844Z,63.57
2022-07-26T04:24:42.685Z,63.81
2022-07-26T04:25:40.712Z,63.86
2022-07-26T04:26:31.965Z,63.85
2022-07-26T04:27:27.108Z,63.68
2022-07-26T04:28:22.225Z,63.69
2022-07-26T04:29:17.283Z,63.80
2022-07-26T04:30:15.119Z,63.79
2022-07-26T04:31:07.488Z,63.92
2022-07-26T04:32:02.618Z,64.00
2022-07-26T04:32:57.886Z,64.01
2022-07-26T04:33:52.922Z,64.08
2022-07-26T04:34:47.901Z,63.95
2022-07-26T04:35:43.012Z,64.09
2022-07-26T04:36:38.006Z,64.26
2022-07-26T04:37:33.105Z,64.22
2022-07-26T04:38:28.219Z,64.09
2022-07-26T04:39:23.174Z,64.05
2022-07-26T04:40:18.229Z,64.22
2022-07-26T04:41:13.308Z,64.44
2022-07-26T04:42:08.343Z,64.53
2022-07-26T04:43:03.416Z,64.55
2022-07-26T04:43:58.470Z,64.77
2022-07-26T04:44:53.587Z,64.94
2022-07-26T04:45:48.778Z,65.12
2022-07-26T04:46:45.197Z,65.15
2022-07-26T04:47:39.652Z,65.25
2022-07-26T04:48:34.980Z,65.55
2022-07-26T04:49:30.527Z,65.79
2022-07-26T04:50:25.824Z,65.98
2022-07-26T04:51:20.990Z,66.05
2022-07-26T04:52:16.294Z,65.99
2022-07-26T04:53:11.606Z,66.16
2022-07-26T04:54:07.108Z,65.94
2022-07-26T04:55:02.383Z,65.81
2022-07-26T04:55:57.978Z,65.79
2022-07-26T04:56:54.606Z,65.88
2022-07-26T04:57:50.036Z,65.94
2022-07-26T04:58:45.500Z,65.83
2022-07-26T04:59:41.044Z,65.68
2022-07-26T05:00:51.323Z,65.37
2022-07-26T05:01:32.905Z,65.15
2022-07-26T05:02:26.981Z,64.91
2022-07-26T05:03:22.015Z,64.77
2022-07-26T05:04:17.084Z,64.82
2022-07-26T05:05:12.106Z,64.79
2022-07-26T05:06:07.229Z,64.87
2022-07-26T05:07:02.263Z,64.89
2022-07-26T05:07:57.251Z,65.01
2022-07-26T05:08:52.947Z,65.19
2022-07-26T05:09:47.906Z,65.24
2022-07-26T05:10:45.012Z,65.04
2022-07-26T05:11:38.151Z,64.88
2022-07-26T05:12:33.231Z,65.01
2022-07-26T05:13:29.755Z,64.95
2022-07-26T05:14:23.402Z,64.98
2022-07-26T05:15:18.503Z,64.98
2022-07-26T05:16:13.622Z,64.89
2022-07-26T05:17:10.311Z,64.86
2022-07-26T05:18:07.138Z,64.58
2022-07-26T05:18:58.964Z,64.69
2022-07-26T05:19:54.545Z,64.44
2022-07-26T05:20:49.055Z,64.39
2022-07-26T05:21:44.139Z,64.70
2022-07-26T05:22:39.675Z,64.81
2022-07-26T05:23:34.253Z,64.91
2022-07-26T05:24:33.169Z,65.03
2022-07-26T05:25:28.518Z,65.20
2022-07-26T05:26:23.920Z,65.31
2022-07-26T05:27:19.292Z,65.56
2022-07-26T05:28:14.873Z,65.85
2022-07-26T05:29:10.138Z,66.11
2022-07-26T05:30:05.486Z,66.37
2022-07-26T05:31:00.879Z,66.40
2022-07-26T05:31:56.199Z,66.52
2022-07-26T05:32:51.617Z,66.49
2022-07-26T05:33:47.012Z,66.39
2022-07-26T05:34:42.327Z,66.37
2022-07-26T05:35:37.665Z,66.24
2022-07-26T05:36:33.039Z,65.98
2022-07-26T05:37:28.527Z,65.77
2022-07-26T05:38:23.820Z,65.72
2022-07-26T05:39:19.176Z,65.72
2022-07-26T05:40:14.635Z,65.52
2022-07-26T05:41:09.591Z,65.22
2022-07-26T05:42:04.877Z,64.97
2022-07-26T05:42:59.930Z,64.81
2022-07-26T05:43:54.917Z,64.86
2022-07-26T05:44:49.910Z,64.76
2022-07-26T05:45:45.000Z,64.81
2022-07-26T05:46:40.014Z,64.98
2022-07-26T05:47:35.697Z,65.15
2022-07-26T05:48:30.862Z,65.03
2022-07-26T05:49:25.847Z,65.10
2022-07-26T05:50:20.824Z,64.82
2022-07-26T05:51:15.914Z,64.64
2022-07-26T05:52:11.039Z,64.57
2022-07-26T05:53:06.116Z,64.51
2022-07-26T05:54:01.152Z,64.42
2022-07-26T05:54:56.125Z,64.67
2022-07-26T05:55:51.214Z,64.61
2022-07-26T05:56:46.305Z,64.70
2022-07-26T05:57:41.397Z,64.76
2022-07-26T05:58:36.483Z,64.73
2022-07-26T05:59:31.473Z,64.70
2022-07-26T06:00:26.563Z,64.53
2022-07-26T06:01:21.651Z,64.67
2022-07-26T06:02:16.757Z,64.89
2022-07-26T06:03:11.926Z,65.07
2022-07-26T06:04:07.158Z,65.26
2022-07-26T06:05:02.073Z,65.41
2022-07-26T06:05:57.603Z,65.56
2022-07-26T06:06:53.007Z,65.56
2022-07-26T06:07:48.361Z,65.45
2022-07-26T06:08:43.800Z,65.14
2022-07-26T06:09:39.159Z,64.70
2022-07-26T06:10:34.658Z,64.80
2022-07-26T06:11:29.924Z,64.73
2022-07-26T06:12:25.341Z,64.37
2022-07-26T06:13:20.905Z,64.25
2022-07-26T06:14:16.368Z,64.23
2022-07-26T06:15:15.604Z,63.81
2022-07-26T06:16:07.312Z,63.47
2022-07-26T06:17:06.694Z,63.42
2022-07-26T06:18:02.269Z,62.63
2022-07-26T06:18:57.549Z,62.30
2022-07-26T06:19:53.167Z,62.35
2022-07-26T06:20:48.634Z,62.58
2022-07-26T06:21:44.116Z,62.95
2022-07-26T06:22:39.534Z,62.77
2022-07-26T06:23:35.303Z,62.52
2022-07-26T06:24:30.545Z,62.41
2022-07-26T06:25:26.019Z,62.72
2022-07-26T06:26:21.435Z,62.93
2022-07-26T06:27:17.021Z,62.81
2022-07-26T06:28:12.327Z,62.15
2022-07-26T06:29:07.795Z,61.91
2022-07-26T06:30:03.279Z,61.68
2022-07-26T06:30:58.271Z,61.45
2022-07-26T06:31:53.369Z,61.90
2022-07-26T06:32:48.429Z,61.43
2022-07-26T06:33:43.453Z,61.16
2022-07-26T06:34:38.492Z,61.22
2022-07-26T06:35:33.536Z,61.03
2022-07-26T06:36:30.753Z,60.69
2022-07-26T06:37:23.612Z,60.38
2022-07-26T06:38:18.627Z,60.17
2022-07-26T06:39:13.717Z,60.22
2022-07-26T06:40:10.317Z,59.70
2022-07-26T06:41:05.295Z,58.95
2022-07-26T06:42:00.588Z,58.45
2022-07-26T06:42:55.631Z,58.20
2022-07-26T06:43:51.556Z,57.47
2022-07-26T06:44:47.301Z,57.25
2022-07-26T06:45:42.723Z,57.30
2022-07-26T06:46:38.176Z,57.32
2022-07-26T06:47:33.861Z,57.66
2022-07-26T06:48:29.196Z,57.75
2022-07-26T06:49:24.728Z,57.84
2022-07-26T06:50:20.936Z,58.12
2022-07-26T06:51:16.410Z,57.98
2022-07-26T06:52:10.903Z,57.99
2022-07-26T06:53:06.340Z,57.96
2022-07-26T06:54:01.893Z,58.20
2022-07-26T06:54:57.232Z,58.45
2022-07-26T06:55:52.830Z,58.83
2022-07-26T06:56:47.905Z,58.86
2022-07-26T06:57:49.307Z,58.34
2022-07-26T06:58:39.112Z,57.81
2022-07-26T06:59:33.118Z,57.29
2022-07-26T07:00:28.192Z,56.38
2022-07-26T07:01:57.811Z,55.89
2022-07-26T07:02:19.319Z,56.07
2022-07-26T07:03:16.130Z,56.62
2022-07-26T07:04:11.799Z,57.09
2022-07-26T07:05:06.870Z,57.14
2022-07-26T07:06:02.204Z,57.58
2022-07-26T07:06:57.750Z,57.83
2022-07-26T07:07:53.238Z,57.86
2022-07-26T07:08:48.655Z,57.42
2022-07-26T07:09:44.138Z,56.89
2022-07-26T07:10:39.490Z,56.31
2022-07-26T07:11:34.942Z,55.32
2022-07-26T07:12:30.498Z,54.56
2022-07-26T07:13:25.970Z,54.13
2022-07-26T07:14:21.464Z,53.41
2022-07-26T07:15:16.928Z,53.10
2022-07-26T07:16:12.595Z,52.18
2022-07-26T07:17:12.894Z,51.62
2022-07-26T07:18:04.456Z,51.29
2022-07-26T07:18:58.883Z,51.50
2022-07-26T07:19:54.473Z,51.77
2022-07-26T07:20:49.955Z,52.20
2022-07-26T07:21:45.463Z,52.28
2022-07-26T07:22:40.913Z,53.40
2022-07-26T07:23:36.393Z,53.74
2022-07-26T07:24:31.848Z,53.67
2022-07-26T07:25:31.200Z,53.79
2022-07-26T07:26:26.133Z,54.12
2022-07-26T07:27:21.812Z,54.84
2022-07-26T07:28:17.968Z,55.47
2022-07-26T07:29:12.714Z,56.23
2022-07-26T07:30:08.150Z,56.42
2022-07-26T07:31:03.888Z,56.79
2022-07-26T07:31:58.969Z,56.80
2022-07-26T07:32:54.570Z,56.91
2022-07-26T07:33:53.700Z,56.90
2022-07-26T07:34:45.143Z,57.07
2022-07-26T07:35:40.182Z,56.85
2022-07-26T07:36:35.222Z,56.39
2022-07-26T07:37:53.016Z,55.55
2022-07-26T07:38:26.373Z,54.98
2022-07-26T07:39:20.509Z,54.29
2022-07-26T07:40:15.613Z,53.50
2022-07-26T07:41:10.669Z,53.71
2022-07-26T07:42:05.675Z,54.23
2022-07-26T07:43:00.717Z,54.59
2022-07-26T07:43:55.748Z,54.88
2022-07-26T07:44:50.899Z,55.09
2022-07-26T07:45:48.287Z,55.17
2022-07-26T07:46:41.724Z,55.29
2022-07-26T07:47:37.064Z,55.12
2022-07-26T07:48:36.393Z,54.99
2022-07-26T07:49:31.985Z,55.29
2022-07-26T07:50:28.424Z,55.42
2022-07-26T07:51:22.861Z,55.50
2022-07-26T07:52:18.381Z,54.23
2022-07-26T07:53:13.899Z,53.70
2022-07-26T07:54:09.307Z,53.03
2022-07-26T07:55:37.736Z,52.48
2022-07-26T07:56:01.799Z,52.49
2022-07-26T07:56:56.366Z,52.38
2022-07-26T07:57:51.917Z,51.37
2022-07-26T07:58:47.432Z,50.62
2022-07-26T07:59:42.947Z,50.95
2022-07-26T08:00:38.369Z,49.84
2022-07-26T08:01:40.337Z,50.37
2022-07-26T08:02:30.545Z,50.98
2022-07-26T08:03:25.144Z,51.18
2022-07-26T08:04:21.540Z,51.39
2022-07-26T08:05:16.028Z,51.28
2022-07-26T08:06:11.396Z,50.97
2022-07-26T08:07:06.510Z,50.70
2022-07-26T08:08:01.532Z,51.03
2022-07-26T08:08:56.615Z,50.81
2022-07-26T08:09:51.753Z,50.55
2022-07-26T08:10:51.873Z,50.56
2022-07-26T08:11:42.833Z,50.36
2022-07-26T08:12:36.803Z,50.16
2022-07-26T08:13:31.944Z,50.07
2022-07-26T08:14:27.152Z,49.76
2022-07-26T08:15:22.176Z,49.77
2022-07-26T08:16:17.360Z,49.64
2022-07-26T08:17:12.400Z,50.50
2022-07-26T08:18:08.667Z,50.93
2022-07-26T08:19:02.616Z,51.09
2022-07-26T08:20:00.080Z,50.18
2022-07-26T08:20:53.566Z,50.17
2022-07-26T08:21:48.652Z,50.78
2022-07-26T08:22:43.721Z,50.88
2022-07-26T08:23:38.815Z,51.31
2022-07-26T08:24:34.646Z,51.90
2022-07-26T08:25:29.624Z,51.09
2022-07-26T08:26:24.695Z,50.78
2022-07-26T08:27:19.840Z,49.97
2022-07-26T08:28:37.770Z,48.09
2022-07-26T08:29:11.027Z,47.59
2022-07-26T08:30:04.888Z,46.13
2022-07-26T08:31:00.189Z,45.53
2022-07-26T08:31:55.078Z,45.60
2022-07-26T08:32:50.089Z,46.10
2022-07-26T08:33:45.839Z,46.37
2022-07-26T08:34:40.128Z,46.49
2022-07-26T08:35:35.251Z,45.35
2022-07-26T08:36:32.574Z,44.85
2022-07-26T08:37:25.292Z,43.47
2022-07-26T08:38:20.427Z,43.40
2022-07-26T08:39:15.412Z,43.37
2022-07-26T08:40:10.409Z,42.98
2022-07-26T08:41:05.824Z,42.07
2022-07-26T08:42:01.350Z,41.75
2022-07-26T08:42:56.986Z,42.45
2022-07-26T08:43:53.758Z,42.49
2022-07-26T08:44:47.823Z,42.90
2022-07-26T08:45:43.336Z,42.78
2022-07-26T08:46:38.887Z,42.36
2022-07-26T08:47:37.827Z,43.03
2022-07-26T08:48:32.423Z,43.65
2022-07-26T08:49:25.748Z,44.45
2022-07-26T08:50:21.156Z,45.26
2022-07-26T08:51:16.573Z,45.85
2022-07-26T08:52:11.989Z,46.21
2022-07-26T08:53:07.533Z,46.55
2022-07-26T08:54:05.677Z,47.46
2022-07-26T08:54:58.117Z,46.43
2022-07-26T08:56:08.434Z,46.45
2022-07-26T08:56:49.102Z,46.65
2022-07-26T08:57:43.151Z,46.21
2022-07-26T08:58:38.264Z,45.41
2022-07-26T08:59:33.264Z,44.37
2022-07-26T09:00:28.277Z,44.26
2022-07-26T09:01:23.415Z,44.30
2022-07-26T09:02:18.432Z,43.84
2022-07-26T09:03:13.503Z,43.55
2022-07-26T09:04:08.583Z,42.64
2022-07-26T09:05:03.598Z,41.66
2022-07-26T09:05:58.703Z,41.48
2022-07-26T09:06:53.952Z,40.98
2022-07-26T09:07:48.880Z,41.18
2022-07-26T09:08:44.023Z,41.18
2022-07-26T09:09:38.982Z,41.12
2022-07-26T09:10:38.838Z,42.53
2022-07-26T09:11:30.910Z,42.88
2022-07-26T09:12:25.411Z,43.78
2022-07-26T09:13:20.905Z,44.21
2022-07-26T09:14:16.546Z,44.30
2022-07-26T09:15:12.074Z,44.69
2022-07-26T09:16:07.669Z,43.65
2022-07-26T09:17:03.201Z,43.37
2022-07-26T09:17:58.672Z,43.13
2022-07-26T09:18:54.113Z,43.31
2022-07-26T09:19:49.726Z,43.54
2022-07-26T09:20:45.130Z,44.03
2022-07-26T09:21:40.549Z,44.10
2022-07-26T09:22:36.195Z,44.81
2022-07-26T09:23:31.652Z,45.39
2022-07-26T09:24:27.145Z,46.07
2022-07-26T09:25:22.719Z,46.51
2022-07-26T09:26:18.089Z,46.93
2022-07-26T09:27:13.593Z,46.67
2022-07-26T09:28:09.230Z,46.36
2022-07-26T09:29:04.727Z,46.62
2022-07-26T09:29:59.728Z,45.46
2022-07-26T09:30:54.820Z,43.82
2022-07-26T09:31:49.941Z,43.48
2022-07-26T09:32:44.935Z,42.68
2022-07-26T09:33:40.039Z,42.63
2022-07-26T09:34:35.172Z,40.95
2022-07-26T09:35:50.910Z,40.00
2022-07-26T09:36:26.398Z,39.54
2022-07-26T09:37:20.460Z,38.51
2022-07-26T09:38:15.586Z,38.00
2022-07-26T09:39:11.113Z,37.94
2022-07-26T09:40:05.776Z,38.65
2022-07-26T09:41:00.748Z,38.51
2022-07-26T09:42:24.904Z,37.96
2022-07-26T09:42:53.103Z,36.80
2022-07-26T09:43:51.582Z,35.92
2022-07-26T09:44:47.875Z,35.80
2022-07-26T09:45:38.242Z,34.97
2022-07-26T09:46:32.351Z,34.89
2022-07-26T09:47:27.739Z,34.71
2022-07-26T09:48:23.295Z,35.03
2022-07-26T09:49:18.852Z,35.08
2022-07-26T09:50:14.589Z,34.99
2022-07-26T09:51:09.889Z,34.92
2022-07-26T09:52:05.285Z,34.38
2022-07-26T09:53:00.934Z,34.52
2022-07-26T09:53:56.336Z,34.78
2022-07-26T09:54:51.964Z,35.51
2022-07-26T09:55:47.390Z,35.70
2022-07-26T09:56:42.864Z,36.22
2022-07-26T09:57:38.225Z,36.38
2022-07-26T09:58:33.795Z,36.37
2022-07-26T09:59:28.879Z,36.41
2022-07-26T10:00:23.993Z,37.27
2022-07-26T10:01:19.069Z,37.11
2022-07-26T10:02:14.007Z,38.11
2022-07-26T10:03:09.170Z,38.03
2022-07-26T10:04:04.200Z,37.66
2022-07-26T10:04:59.303Z,37.68
2022-07-26T10:05:54.333Z,37.71
2022-07-26T10:06:49.438Z,37.70
2022-07-26T10:07:44.545Z,38.12
2022-07-26T10:08:39.632Z,38.81
2022-07-26T10:09:34.704Z,39.59
2022-07-26T10:10:29.902Z,39.34
2022-07-26T10:11:25.027Z,39.34
2022-07-26T10:12:20.924Z,39.37
2022-07-26T10:13:16.200Z,38.74
2022-07-26T10:14:11.922Z,39.15
2022-07-26T10:15:07.179Z,39.17
2022-07-26T10:16:02.785Z,39.37
2022-07-26T10:16:58.215Z,39.17
2022-07-26T10:17:54.176Z,39.51
2022-07-26T10:18:49.236Z,39.91
2022-07-26T10:19:45.308Z,40.26
2022-07-26T10:20:40.305Z,40.50
2022-07-26T10:21:35.544Z,39.73
2022-07-26T10:22:30.703Z,39.71
2022-07-26T10:23:25.723Z,39.02
2022-07-26T10:24:20.842Z,38.34
2022-07-26T10:25:15.950Z,37.50
2022-07-26T10:26:11.057Z,36.99
2022-07-26T10:27:06.055Z,37.20
2022-07-26T10:28:01.217Z,37.74
2022-07-26T10:28:56.311Z,38.19
2022-07-26T10:29:51.431Z,37.54
2022-07-26T10:30:46.420Z,36.98
2022-07-26T10:31:41.553Z,37.19
2022-07-26T10:32:36.656Z,38.39
2022-07-26T10:33:31.878Z,38.63
2022-07-26T10:34:26.960Z,38.42
2022-07-26T10:35:24.046Z,38.77
2022-07-26T10:36:19.418Z,38.85
2022-07-26T10:37:14.918Z,38.76
2022-07-26T10:38:10.482Z,38.23
2022-07-26T10:39:05.993Z,38.94
2022-07-26T10:40:01.639Z,39.17
2022-07-26T10:40:57.058Z,39.64
2022-07-26T10:41:52.597Z,39.42
2022-07-26T10:42:47.971Z,39.47
2022-07-26T10:43:43.531Z,39.46
2022-07-26T10:44:38.917Z,38.61
2022-07-26T10:45:34.426Z,37.67
2022-07-26T10:46:30.042Z,37.73
2022-07-26T10:47:25.437Z,37.28
2022-07-26T10:48:20.968Z,36.58
2022-07-26T10:49:15.996Z,36.94
2022-07-26T10:50:11.083Z,35.76
2022-07-26T10:51:06.581Z,35.47
2022-07-26T10:52:01.181Z,34.74
2022-07-26T10:52:56.295Z,34.25
2022-07-26T10:53:51.324Z,34.05
2022-07-26T10:54:46.318Z,33.97
2022-07-26T10:55:41.550Z,32.98
2022-07-26T10:56:36.600Z,32.58
2022-07-26T10:57:31.667Z,32.68
2022-07-26T10:58:28.519Z,32.10
2022-07-26T10:59:45.769Z,32.79
2022-07-26T11:00:19.649Z,32.60
2022-07-26T11:01:13.857Z,31.62
2022-07-26T11:02:09.204Z,32.74
2022-07-26T11:03:04.685Z,33.27
2022-07-26T11:04:00.084Z,33.22
2022-07-26T11:04:55.485Z,33.19
2022-07-26T11:05:51.003Z,32.76
2022-07-26T11:06:46.507Z,32.57
2022-07-26T11:07:42.086Z,30.65
2022-07-26T11:08:37.546Z,30.67
2022-07-26T11:09:34.473Z,30.79
2022-07-26T11:10:29.912Z,30.63
2022-07-26T11:11:25.471Z,31.10
2022-07-26T11:12:20.886Z,31.43
2022-07-26T11:13:16.424Z,30.88
2022-07-26T11:14:12.078Z,30.71
2022-07-26T11:15:06.767Z,31.44
2022-07-26T11:16:01.904Z,31.59
2022-07-26T11:16:56.898Z,31.87
2022-07-26T11:17:51.949Z,31.52
2022-07-26T11:18:46.941Z,32.62
2022-07-26T11:19:41.965Z,31.65
2022-07-26T11:20:37.152Z,31.99
2022-07-26T11:21:33.000Z,32.73
2022-07-26T11:22:28.035Z,33.47
2022-07-26T11:23:23.061Z,32.64
2022-07-26T11:24:18.139Z,32.43
2022-07-26T11:25:13.186Z,32.16
2022-07-26T11:26:08.200Z,31.70
2022-07-26T11:27:03.292Z,31.40
2022-07-26T11:27:58.282Z,31.13
2022-07-26T11:28:53.417Z,31.64
2022-07-26T11:29:49.077Z,32.09
2022-07-26T11:30:43.572Z,32.77
2022-07-26T11:31:51.155Z,33.29
2022-07-26T11:32:34.796Z,32.69
2022-07-26T11:33:28.891Z,32.09
2022-07-26T11:34:23.945Z,31.89
2022-07-26T11:35:18.962Z,31.74
2022-07-26T11:36:13.999Z,31.76
2022-07-26T11:37:13.650Z,31.81
2022-07-26T11:38:12.074Z,31.81
2022-07-26T11:39:04.321Z,31.29
2022-07-26T11:39:59.790Z,31.56
2022-07-26T11:40:55.240Z,30.95
2022-07-26T11:41:50.742Z,30.51
2022-07-26T11:42:46.034Z,30.34
2022-07-26T11:43:41.589Z,30.35
2022-07-26T11:44:36.895Z,30.63
2022-07-26T11:45:32.361Z,30.37
2022-07-26T11:46:27.854Z,30.86
2022-07-26T11:47:24.235Z,30.59
2022-07-26T11:48:18.673Z,30.56
2022-07-26T11:49:14.175Z,30.16
2022-07-26T11:50:22.766Z,30.23
2022-07-26T11:51:07.010Z,31.00
2022-07-26T11:51:59.636Z,31.19
2022-07-26T11:52:55.317Z,31.42